Time;durP1;ratioP1;P1;durP2;ratioP2;P2;SDS_P1;SDS_P2;PMS_P1;PMS_P2;Temp;Humidity;BMP_temperature;BMP_pressure;BME280_temperature;BME280_humidity;BME280_pressure;Samples;Min_cycle;Max_cycle;Signal;HPM_P1;HPM_P2
2022/04/03 05:30:18;;;;;;;6.93;4.60;;;-0.40;99.90;;;;;;4995737;28;20128;-87
2022/04/03 05:32:56;;;;;;;8.38;4.55;;;-0.40;99.90;;;;;;4967438;28;21340;-87
2022/04/03 05:35:28;;;;;;;7.35;4.68;;;-0.40;99.90;;;;;;4972361;28;20030;-89
2022/04/03 05:37:59;;;;;;;9.10;4.03;;;-0.40;99.90;;;;;;4961754;28;20046;-88
2022/04/03 05:40:27;;;;;;;7.13;4.30;;;-0.30;99.90;;;;;;4976162;28;20041;-87
2022/04/03 05:42:53;;;;;;;7.90;5.03;;;-0.30;99.90;;;;;;4982971;28;20029;-88
2022/04/03 05:45:23;;;;;;;7.30;4.68;;;-0.40;99.90;;;;;;4949114;28;20031;-89
2022/04/03 05:47:51;;;;;;;10.15;4.13;;;-0.40;99.90;;;;;;4963889;28;20197;-89
2022/04/03 05:50:19;;;;;;;6.53;4.40;;;-0.40;99.90;;;;;;4969683;28;20228;-89
2022/04/03 05:52:49;;;;;;;8.13;4.13;;;-0.40;99.90;;;;;;4970082;28;20072;-89
2022/04/03 05:55:20;;;;;;;8.35;4.50;;;-0.40;99.90;;;;;;4965663;28;20107;-87
2022/04/03 06:00:42;;;;;;;9.75;4.80;;;-0.50;99.90;;;;;;4995700;28;20096;-89
2022/04/03 06:03:08;;;;;;;6.00;4.20;;;-0.50;99.90;;;;;;4949995;28;21171;-89
2022/04/03 06:05:40;;;;;;;8.80;4.93;;;-0.50;99.90;;;;;;4961361;28;20042;-85
2022/04/03 06:08:07;;;;;;;7.82;4.03;;;-0.50;99.90;;;;;;4962417;28;20042;-88
2022/04/03 06:10:36;;;;;;;7.00;4.18;;;-0.50;99.90;;;;;;4964517;28;20041;-88
2022/04/03 06:13:06;;;;;;;7.47;4.70;;;-0.50;99.90;;;;;;4966888;28;20038;-89
2022/04/03 06:15:37;;;;;;;8.93;4.95;;;-0.50;99.90;;;;;;4964548;28;20126;-87
2022/04/03 06:18:08;;;;;;;6.37;4.33;;;-0.50;99.90;;;;;;4946510;28;20042;-89
2022/04/03 06:20:35;;;;;;;6.93;4.35;;;-0.50;99.90;;;;;;4959212;28;21195;-86
2022/04/03 06:23:03;;;;;;;8.38;4.57;;;-0.50;99.90;;;;;;4947487;28;20040;-89
2022/04/03 06:25:29;;;;;;;9.52;4.88;;;-0.50;99.90;;;;;;4974307;28;20042;-88
2022/04/03 06:27:55;;;;;;;8.23;5.07;;;-0.40;99.90;;;;;;4943883;28;20046;-89
2022/04/03 06:30:22;;;;;;;10.80;5.10;;;-0.40;99.90;;;;;;4944094;28;20038;-86
2022/04/03 06:32:48;;;;;;;9.60;4.90;;;-0.30;99.90;;;;;;4957862;28;20249;-89
2022/04/03 06:35:14;;;;;;;6.25;4.30;;;-0.20;99.90;;;;;;4946711;28;20038;-87
2022/04/03 06:37:41;;;;;;;12.20;4.65;;;-0.10;99.90;;;;;;4957511;28;20092;-86
2022/04/03 06:40:08;;;;;;;9.85;4.90;;;-0.10;99.90;;;;;;4958689;28;20067;-86
2022/04/03 06:42:34;;;;;;;6.03;4.28;;;0.00;99.90;;;;;;4963985;28;20124;-88
2022/04/03 06:45:01;;;;;;;11.80;5.72;;;0.00;99.90;;;;;;4962948;28;20033;-86
2022/04/03 06:47:28;;;;;;;8.23;4.93;;;0.00;99.90;;;;;;4960036;28;20065;-87
2022/04/03 06:49:54;;;;;;;6.57;5.20;;;0.00;99.90;;;;;;4956481;28;20391;-87
2022/04/03 06:52:20;;;;;;;10.73;4.88;;;0.20;99.90;;;;;;4955419;28;20061;-87
2022/04/03 06:54:46;;;;;;;6.20;4.28;;;0.20;99.90;;;;;;4939309;28;20045;-88
2022/04/03 06:57:14;;;;;;;8.75;4.13;;;0.30;99.90;;;;;;4927179;28;20093;-88
2022/04/03 06:59:40;;;;;;;8.13;3.75;;;0.40;99.90;;;;;;4956733;28;20030;-88
2022/04/03 07:02:07;;;;;;;8.07;3.78;;;0.50;99.90;;;;;;4948332;28;20115;-86
2022/04/03 07:04:34;;;;;;;8.52;3.85;;;0.60;99.90;;;;;;4963152;28;20034;-87
2022/04/03 07:07:00;;;;;;;8.75;3.80;;;0.80;99.90;;;;;;4948106;28;20125;-88
2022/04/03 07:09:26;;;;;;;8.48;3.80;;;;;;;;;;4945472;28;20132;-87
2022/04/03 07:11:52;;;;;;;5.03;3.20;;;;;;;;;;4964770;28;20046;-83
2022/04/03 07:14:18;;;;;;;5.65;3.28;;;0.90;99.90;;;;;;4941298;28;20554;-86
2022/04/03 07:16:44;;;;;;;6.85;3.85;;;;;;;;;;4935102;28;20046;-88
2022/04/03 07:19:11;;;;;;;6.25;2.80;;;;;;;;;;4976593;28;21345;-87
2022/04/03 07:21:37;;;;;;;6.60;3.05;;;;;;;;;;4948376;28;20065;-86
2022/04/03 07:24:04;;;;;;;10.27;3.28;;;1.20;99.90;;;;;;4963484;28;20042;-87
2022/04/03 07:26:31;;;;;;;5.95;3.33;;;;;;;;;;4954927;28;20041;-87
2022/04/03 07:29:00;;;;;;;9.88;3.42;;;;;;;;;;4957379;28;20040;-87
2022/04/03 07:31:45;;;;;;;6.43;2.97;;;;;;;;;;4985274;23;21590;-85
2022/04/03 07:48:44;;;;;;;4.72;2.65;;;2.20;99.90;;;;;;4910506;29;21710;-86
2022/04/03 08:06:18;;;;;;;5.07;2.05;;;;;;;;;;4860887;29;20464;-88
2022/04/03 15:59:46;;;;;;;2.65;0.93;;;;;;;;;;5002383;28;20048;-88
2022/04/03 16:02:50;;;;;;;2.38;1.00;;;;;;;;;;4939580;28;20058;-87
2022/04/03 16:05:15;;;;;;;2.17;1.13;;;9.90;72.50;;;;;;4989674;28;20498;-88
2022/04/03 16:07:42;;;;;;;3.75;1.00;;;10.20;68.80;;;;;;4985527;28;20038;-90
2022/04/03 16:10:27;;;;;;;2.70;1.10;;;9.90;68.60;;;;;;4983261;28;20636;-88
2022/04/03 16:12:58;;;;;;;2.92;1.00;;;9.60;69.00;;;;;;4980128;28;20034;-89
2022/04/03 16:15:26;;;;;;;2.75;1.00;;;9.30;69.50;;;;;;4966742;28;20038;-88
2022/04/03 16:17:52;;;;;;;2.95;0.90;;;9.10;70.20;;;;;;4954326;28;20494;-88
2022/04/03 16:20:18;;;;;;;3.40;1.10;;;8.90;71.80;;;;;;4940780;28;23187;-89
2022/04/03 16:22:44;;;;;;;3.10;0.85;;;8.70;73.20;;;;;;4953182;28;20538;-88
2022/04/03 16:25:10;;;;;;;3.05;1.00;;;8.60;74.30;;;;;;4949760;28;20038;-83
2022/04/03 16:27:38;;;;;;;3.83;0.93;;;8.40;75.00;;;;;;4950550;28;20113;-88
2022/04/03 16:30:07;;;;;;;2.33;1.10;;;;;;;;;;4939368;28;20038;-86
2022/04/03 16:32:43;;;;;;;4.57;1.02;;;8.30;76.70;;;;;;4986559;28;20056;-89
2022/04/03 16:35:10;;;;;;;3.75;1.10;;;;;;;;;;4993605;28;20046;-90
2022/04/03 16:37:37;;;;;;;3.13;1.15;;;8.00;79.30;;;;;;4979282;28;20052;-86
2022/04/03 16:40:05;;;;;;;3.63;1.00;;;7.70;81.40;;;;;;4970188;28;20093;-89
2022/04/03 16:42:32;;;;;;;3.70;0.80;;;7.70;82.60;;;;;;4946079;28;20125;-87
2022/04/03 16:44:57;;;;;;;2.45;0.90;;;7.60;83.50;;;;;;4973744;28;20050;-89
2022/04/03 16:47:23;;;;;;;4.65;1.00;;;7.50;84.20;;;;;;4955935;28;20045;-89
2022/04/03 16:49:49;;;;;;;3.05;1.02;;;7.50;85.30;;;;;;4954303;28;20041;-87
2022/04/03 16:52:16;;;;;;;2.75;1.10;;;7.50;85.90;;;;;;4978732;28;20120;-88
2022/04/03 16:54:42;;;;;;;3.85;1.08;;;7.40;85.60;;;;;;4974258;28;20278;-89
2022/04/03 16:57:08;;;;;;;3.65;1.00;;;7.40;85.40;;;;;;4963933;28;20080;-89
2022/04/03 16:59:34;;;;;;;5.45;1.05;;;7.40;85.60;;;;;;4943770;28;20038;-89
2022/04/03 17:01:59;;;;;;;2.85;1.00;;;7.30;86.50;;;;;;4920580;28;20042;-87
2022/04/03 17:04:26;;;;;;;4.40;1.15;;;7.30;88.80;;;;;;4933226;28;20080;-87
2022/04/03 17:06:55;;;;;;;2.85;0.90;;;7.10;90.30;;;;;;4968629;28;20136;-88
2022/04/03 17:09:21;;;;;;;3.53;1.10;;;7.10;91.30;;;;;;4969596;28;20049;-89
2022/04/03 17:11:47;;;;;;;1.48;0.95;;;6.90;92.40;;;;;;4953527;28;20038;-89
2022/04/03 17:14:13;;;;;;;1.77;1.15;;;;;;;;;;4948082;28;20046;-86
2022/04/03 17:16:40;;;;;;;2.03;0.95;;;;;;;;;;4950112;28;20460;-91
2022/04/03 17:19:06;;;;;;;4.65;1.40;;;;;;;;;;4959055;28;20395;-88
2022/04/03 17:21:34;;;;;;;1.80;1.08;;;;;;;;;;4960734;28;20521;-89
2022/04/03 17:24:01;;;;;;;3.33;1.27;;;;;;;;;;4970567;28;20045;-88
2022/04/03 17:26:28;;;;;;;4.43;1.17;;;6.80;93.30;;;;;;4989099;28;20538;-88
2022/04/03 17:28:54;;;;;;;3.20;1.17;;;6.60;99.80;;;;;;4938469;28;20045;-89
2022/04/03 17:31:22;;;;;;;3.90;1.10;;;6.50;99.90;;;;;;4942277;28;20034;-89
2022/04/03 17:33:48;;;;;;;6.00;1.35;;;6.50;99.90;;;;;;4939965;28;20046;-89
2022/04/03 17:36:14;;;;;;;4.38;1.40;;;6.50;99.90;;;;;;4992099;28;20041;-89
2022/04/03 17:38:41;;;;;;;2.67;1.00;;;6.50;99.90;;;;;;4950752;28;20053;-88
2022/04/03 17:41:07;;;;;;;3.08;1.08;;;6.50;99.90;;;;;;4968552;28;20562;-89
2022/04/03 17:43:34;;;;;;;3.42;1.13;;;6.50;99.90;;;;;;4945695;28;20038;-91
2022/04/03 17:46:00;;;;;;;1.75;1.08;;;6.50;99.90;;;;;;4954209;28;20038;-90
2022/04/03 17:48:27;;;;;;;5.50;1.25;;;6.50;99.90;;;;;;4943330;28;20065;-88
2022/04/03 17:50:58;;;;;;;3.47;1.15;;;;;;;;;;4962362;28;20125;-89
2022/04/03 17:53:28;;;;;;;4.50;1.67;;;;;;;;;;4960238;28;20040;-88
2022/04/03 17:55:56;;;;;;;3.55;1.45;;;;;;;;;;4973650;28;20176;-89
2022/04/03 17:58:25;;;;;;;4.60;1.27;;;;;;;;;;4967977;28;20066;-89
2022/04/03 18:00:51;;;;;;;11.02;1.88;;;;;;;;;;4980932;28;20479;-87
2022/04/03 18:03:17;;;;;;;3.05;1.45;;;6.40;99.90;;;;;;4933354;28;20065;-90
2022/04/03 18:05:42;;;;;;;2.58;1.50;;;5.90;99.90;;;;;;4945997;28;20070;-89
2022/04/03 18:08:15;;;;;;;4.00;1.40;;;5.80;99.90;;;;;;4943289;28;20046;-90
2022/04/03 18:11:04;;;;;;;2.50;1.38;;;5.70;99.90;;;;;;4933193;28;20053;-88
2022/04/03 18:13:35;;;;;;;4.05;1.65;;;5.60;99.90;;;;;;4942845;28;20076;-90
2022/04/03 18:16:05;;;;;;;3.25;1.63;;;5.50;99.90;;;;;;4957575;28;20132;-89
2022/04/03 18:18:34;;;;;;;5.18;2.00;;;5.40;99.90;;;;;;4980649;28;20046;-87
2022/04/03 18:21:01;;;;;;;4.55;2.30;;;5.30;99.90;;;;;;4961307;28;20088;-88
2022/04/03 18:23:28;;;;;;;7.07;2.42;;;5.20;99.90;;;;;;4958101;28;20034;-89
2022/04/03 18:25:56;;;;;;;4.80;2.70;;;5.10;99.90;;;;;;4973196;28;20041;-88
2022/04/03 18:28:27;;;;;;;5.85;2.40;;;5.00;99.90;;;;;;4969521;28;20080;-90
2022/04/03 18:30:54;;;;;;;8.55;2.10;;;5.00;99.90;;;;;;4975143;28;20054;-88
2022/04/03 18:33:20;;;;;;;4.50;1.90;;;4.90;99.90;;;;;;4958817;28;20513;-89
2022/04/03 18:35:46;;;;;;;4.68;1.88;;;4.80;99.90;;;;;;4963015;28;20092;-90
2022/04/03 18:38:12;;;;;;;3.05;1.98;;;4.70;99.90;;;;;;4973721;28;20037;-88
2022/04/03 18:40:37;;;;;;;5.00;2.20;;;4.70;99.90;;;;;;4941909;28;20568;-88
2022/04/03 18:43:04;;;;;;;5.80;1.60;;;4.60;99.90;;;;;;4973747;28;20251;-89
2022/04/03 18:45:31;;;;;;;6.25;2.35;;;;;;;;;;4953639;28;20046;-89
2022/04/03 18:47:57;;;;;;;7.53;1.85;;;;;;;;;;4987335;28;20401;-89
2022/04/03 18:50:34;;;;;;;5.50;2.45;;;;;;;;;;5000219;28;20046;-89
2022/04/03 18:53:00;;;;;;;8.98;2.75;;;;;;;;;;4983185;28;20036;-88
2022/04/03 18:55:27;;;;;;;5.05;1.85;;;;;;;;;;4969018;28;20045;-89
2022/04/03 18:57:54;;;;;;;5.00;2.20;;;4.50;99.90;;;;;;4994130;28;20089;-88
2022/04/03 19:00:21;;;;;;;12.25;4.13;;;4.20;99.90;;;;;;4946299;28;20030;-89
2022/04/03 19:02:50;;;;;;;6.38;2.40;;;4.10;99.90;;;;;;4955324;28;20037;-88
2022/04/03 19:05:17;;;;;;;5.38;2.33;;;4.00;99.90;;;;;;4954070;28;20038;-89
2022/04/03 19:07:43;;;;;;;3.97;2.03;;;4.00;99.90;;;;;;4967203;28;20042;-89
2022/04/03 19:10:09;;;;;;;7.38;2.17;;;3.90;99.90;;;;;;4978236;28;20256;-88
2022/04/03 19:12:44;;;;;;;4.93;2.50;;;3.80;99.90;;;;;;4951416;28;20030;-88
2022/04/03 19:15:10;;;;;;;3.75;1.50;;;3.80;99.90;;;;;;4953939;28;21226;-88
2022/04/03 19:17:36;;;;;;;5.43;2.00;;;3.70;99.90;;;;;;4940637;28;20073;-89
2022/04/03 19:20:04;;;;;;;4.82;1.80;;;3.70;99.90;;;;;;4968376;28;20529;-89
2022/04/03 19:22:30;;;;;;;4.75;1.60;;;3.70;99.90;;;;;;4951456;28;20116;-89
2022/04/03 19:24:59;;;;;;;6.45;1.90;;;3.60;99.90;;;;;;4953660;28;20170;-89
2022/04/03 19:27:25;;;;;;;4.78;1.63;;;3.60;99.90;;;;;;4937022;28;20399;-89
2022/04/03 19:29:53;;;;;;;10.35;1.77;;;3.60;99.90;;;;;;4962429;28;20037;-90
2022/04/03 19:32:20;;;;;;;2.17;1.73;;;3.50;99.90;;;;;;4996130;23;20037;-88
2022/04/03 19:34:46;;;;;;;3.55;1.83;;;3.50;99.90;;;;;;4998782;28;20520;-88
2022/04/03 19:37:12;;;;;;;6.15;2.00;;;3.40;99.90;;;;;;5017118;28;20538;-89
2022/04/03 19:39:38;;;;;;;7.13;1.80;;;3.30;99.90;;;;;;4988328;28;20041;-88
2022/04/03 19:42:05;;;;;;;5.05;1.50;;;3.30;99.90;;;;;;5015637;28;20504;-88
2022/04/03 19:44:30;;;;;;;4.75;1.95;;;3.20;99.90;;;;;;5000969;28;20041;-88
2022/04/03 19:46:57;;;;;;;6.35;1.90;;;3.20;99.90;;;;;;4999848;28;20041;-87
2022/04/03 19:49:27;;;;;;;2.38;1.60;;;3.10;99.90;;;;;;5017020;28;20044;-88
2022/04/03 19:51:53;;;;;;;5.13;1.75;;;3.10;99.90;;;;;;5001086;28;20244;-87
2022/04/03 19:54:20;;;;;;;3.47;1.50;;;3.00;99.90;;;;;;5027388;28;20045;-89
2022/04/03 19:56:46;;;;;;;4.93;1.55;;;2.90;99.90;;;;;;4995705;28;20059;-88
2022/04/03 19:59:11;;;;;;;6.05;1.75;;;2.90;99.90;;;;;;5033248;28;20036;-88
2022/04/03 20:01:37;;;;;;;4.45;1.80;;;2.90;99.90;;;;;;4969414;28;20878;-87
2022/04/03 20:04:03;;;;;;;6.05;1.65;;;2.80;99.90;;;;;;4986928;28;20043;-88
2022/04/03 20:06:29;;;;;;;5.80;1.80;;;2.80;99.90;;;;;;5003455;28;20036;-88
2022/04/03 20:08:55;;;;;;;9.73;2.35;;;2.70;99.90;;;;;;4982518;28;20041;-88
2022/04/03 20:11:24;;;;;;;5.25;1.67;;;2.70;99.90;;;;;;4999451;28;20094;-88
2022/04/03 20:13:51;;;;;;;5.60;2.38;;;2.70;99.90;;;;;;5016239;28;20559;-88
2022/04/03 20:16:17;;;;;;;5.15;1.80;;;2.60;99.90;;;;;;5015857;28;20044;-88
2022/04/03 20:18:43;;;;;;;5.28;2.22;;;2.60;99.90;;;;;;5004164;28;20033;-88
2022/04/03 20:21:10;;;;;;;5.93;1.95;;;2.60;99.90;;;;;;4979376;28;20045;-89
2022/04/03 20:23:37;;;;;;;5.53;1.98;;;2.70;99.90;;;;;;5012588;28;20175;-87
2022/04/03 20:26:04;;;;;;;4.10;2.00;;;2.60;99.90;;;;;;5000442;28;20382;-87
2022/04/03 20:28:31;;;;;;;4.15;2.10;;;2.60;99.90;;;;;;5017832;28;20036;-90
2022/04/03 20:30:57;;;;;;;7.20;2.22;;;2.50;99.90;;;;;;5014904;28;20123;-88
2022/04/03 20:33:23;;;;;;;4.35;2.40;;;2.50;99.90;;;;;;5013303;28;20044;-88
2022/04/03 20:35:50;;;;;;;6.78;2.42;;;2.50;99.90;;;;;;5010597;28;20297;-87
2022/04/03 20:38:19;;;;;;;4.50;2.33;;;2.50;99.90;;;;;;5006184;28;20040;-88
2022/04/03 20:40:45;;;;;;;3.80;2.60;;;2.40;99.90;;;;;;5016953;28;20069;-88
2022/04/03 20:43:11;;;;;;;6.50;2.70;;;2.40;99.90;;;;;;5016986;28;20029;-87
2022/04/03 20:45:37;;;;;;;8.30;2.72;;;2.40;99.90;;;;;;5001850;28;20056;-87
2022/04/03 20:48:04;;;;;;;7.97;3.63;;;2.30;99.90;;;;;;5015932;28;20405;-89
2022/04/03 20:50:30;;;;;;;6.50;2.58;;;2.40;99.90;;;;;;5013770;28;20053;-89
2022/04/03 20:52:57;;;;;;;4.15;2.50;;;2.40;99.90;;;;;;5008032;28;20045;-88
2022/04/03 20:55:24;;;;;;;6.43;2.70;;;2.30;99.90;;;;;;5009786;28;20041;-87
2022/04/03 20:57:50;;;;;;;6.75;2.83;;;2.30;99.90;;;;;;5014738;28;20124;-88
2022/04/03 21:00:16;;;;;;;6.15;2.58;;;2.30;99.90;;;;;;5014580;28;20123;-89
2022/04/03 21:02:43;;;;;;;7.50;2.95;;;2.30;99.90;;;;;;5016460;28;20474;-89
2022/04/03 21:05:09;;;;;;;6.28;2.67;;;2.30;99.90;;;;;;5012887;28;20263;-89
2022/04/03 21:07:35;;;;;;;5.93;3.00;;;2.30;99.90;;;;;;4995217;28;20476;-89
2022/04/03 21:10:04;;;;;;;4.65;2.92;;;2.30;99.90;;;;;;5001958;28;20075;-88
2022/04/03 21:12:34;;;;;;;7.10;2.90;;;2.30;99.90;;;;;;4997972;28;20049;-88
2022/04/03 21:15:04;;;;;;;10.45;3.08;;;2.30;99.90;;;;;;5012986;28;20047;-88
2022/04/03 21:17:29;;;;;;;6.25;2.70;;;2.50;99.90;;;;;;5005256;28;20556;-88
2022/04/03 21:19:58;;;;;;;7.95;2.83;;;2.40;99.90;;;;;;4991023;28;20091;-88
2022/04/03 21:22:24;;;;;;;5.38;2.50;;;2.50;99.90;;;;;;4996615;28;20043;-89
2022/04/03 21:24:50;;;;;;;8.38;2.50;;;2.50;99.90;;;;;;5010670;28;20111;-88
2022/04/03 21:27:16;;;;;;;3.63;2.53;;;2.50;99.90;;;;;;4995657;28;20040;-88
2022/04/03 21:29:41;;;;;;;5.78;2.58;;;2.50;99.90;;;;;;5012254;28;20029;-87
2022/04/03 21:32:08;;;;;;;9.32;2.50;;;2.50;99.90;;;;;;5007410;28;20035;-88
2022/04/03 21:34:35;;;;;;;8.60;2.60;;;2.50;99.90;;;;;;5005724;28;20034;-90
2022/04/03 21:37:01;;;;;;;8.40;2.63;;;2.50;99.90;;;;;;5021682;28;20033;-88
2022/04/03 21:39:28;;;;;;;6.30;2.35;;;2.50;99.90;;;;;;4990025;28;20069;-89
2022/04/03 21:41:55;;;;;;;6.22;2.92;;;2.50;99.90;;;;;;5012930;28;20044;-90
2022/04/03 21:44:22;;;;;;;7.18;2.58;;;2.60;99.90;;;;;;5007714;28;20040;-88
2022/04/03 21:46:48;;;;;;;4.53;2.70;;;2.60;99.90;;;;;;5006466;28;20095;-89
2022/04/03 21:49:15;;;;;;;10.05;2.97;;;2.60;99.90;;;;;;5012794;28;20041;-88
2022/04/03 21:51:43;;;;;;;5.80;2.30;;;2.60;99.90;;;;;;4994073;28;20044;-88
2022/04/03 21:54:10;;;;;;;6.25;2.63;;;2.60;99.90;;;;;;5010313;28;20041;-89
2022/04/03 21:56:38;;;;;;;4.57;2.38;;;2.70;99.90;;;;;;5020309;28;20040;-88
2022/04/03 21:59:04;;;;;;;4.97;2.53;;;2.70;99.90;;;;;;4988595;28;20037;-89
2022/04/03 22:01:31;;;;;;;7.80;2.80;;;2.70;99.90;;;;;;4995719;28;20090;-88
2022/04/03 22:03:59;;;;;;;5.05;2.42;;;2.70;99.90;;;;;;5007488;28;20075;-89
2022/04/03 22:06:25;;;;;;;5.57;2.53;;;2.70;99.90;;;;;;5006975;28;20029;-89
2022/04/03 22:08:51;;;;;;;5.32;2.72;;;2.70;99.90;;;;;;5007503;28;20479;-89
2022/04/03 22:11:18;;;;;;;4.57;2.80;;;2.70;99.90;;;;;;4993087;28;20048;-89
2022/04/03 22:13:44;;;;;;;8.93;2.88;;;2.80;99.90;;;;;;4994060;28;20391;-89
2022/04/03 22:16:10;;;;;;;7.55;2.83;;;2.70;99.90;;;;;;5007715;28;20048;-88
2022/04/03 22:18:36;;;;;;;6.75;2.90;;;2.60;99.90;;;;;;4994000;28;20466;-89
2022/04/03 22:21:03;;;;;;;5.72;2.78;;;2.50;99.90;;;;;;5009862;28;20040;-89
2022/04/03 22:23:29;;;;;;;4.38;2.80;;;2.60;99.90;;;;;;5010282;28;20060;-89
2022/04/03 22:25:55;;;;;;;3.15;2.53;;;2.70;99.90;;;;;;4997013;28;20037;-89
2022/04/03 22:28:22;;;;;;;7.53;2.45;;;2.60;99.90;;;;;;5011850;28;20041;-90
2022/04/03 22:30:48;;;;;;;4.97;2.80;;;2.70;99.90;;;;;;5012634;28;20126;-89
2022/04/03 22:33:14;;;;;;;7.50;3.30;;;2.70;99.90;;;;;;5012169;28;20478;-89
2022/04/03 22:35:41;;;;;;;7.10;2.78;;;2.70;99.90;;;;;;4999832;28;20033;-89
2022/04/03 22:38:08;;;;;;;6.20;3.13;;;2.70;99.90;;;;;;5026497;28;20044;-88
2022/04/03 22:40:34;;;;;;;7.03;2.92;;;2.70;99.90;;;;;;4998747;28;20076;-88
2022/04/03 22:43:00;;;;;;;4.10;2.40;;;2.70;99.90;;;;;;5006787;28;20060;-89
2022/04/03 22:45:25;;;;;;;4.15;2.97;;;2.70;99.90;;;;;;4999650;28;20044;-90
2022/04/03 22:47:53;;;;;;;7.75;3.85;;;2.70;99.90;;;;;;4975574;28;20028;-89
2022/04/03 22:50:19;;;;;;;6.78;2.70;;;2.70;99.90;;;;;;5015307;28;20076;-89
2022/04/03 22:52:45;;;;;;;7.95;3.35;;;2.70;99.90;;;;;;5030250;28;20041;-89
2022/04/03 22:55:11;;;;;;;5.93;3.30;;;2.70;99.90;;;;;;5009304;28;20048;-89
2022/04/03 22:57:38;;;;;;;6.28;3.30;;;2.60;99.90;;;;;;4996398;28;20073;-90
2022/04/03 23:00:08;;;;;;;5.75;2.80;;;2.60;99.90;;;;;;4990673;28;20052;-89
2022/04/03 23:02:34;;;;;;;6.18;3.47;;;2.60;99.90;;;;;;5009853;28;20603;-89
2022/04/03 23:05:00;;;;;;;5.93;3.22;;;2.60;99.90;;;;;;4999969;28;20513;-89
2022/04/03 23:07:25;;;;;;;3.83;2.95;;;2.50;99.90;;;;;;5010478;28;20044;-89
2022/04/03 23:09:51;;;;;;;7.72;3.25;;;2.60;99.90;;;;;;4997389;28;20093;-89
2022/04/03 23:12:17;;;;;;;6.70;3.60;;;2.60;99.90;;;;;;5001361;28;20116;-89
2022/04/03 23:14:43;;;;;;;6.50;3.25;;;2.60;99.90;;;;;;4997852;28;20033;-89
2022/04/03 23:17:09;;;;;;;6.18;3.55;;;2.60;99.90;;;;;;5004186;28;20091;-88
2022/04/03 23:19:35;;;;;;;6.30;3.75;;;2.70;99.90;;;;;;5013513;28;20477;-89
2022/04/03 23:22:00;;;;;;;5.82;3.30;;;2.60;99.90;;;;;;4997235;28;20111;-91
2022/04/03 23:24:29;;;;;;;6.80;3.60;;;2.60;99.90;;;;;;5013951;28;20485;-91
2022/04/03 23:26:55;;;;;;;7.88;3.22;;;2.60;99.90;;;;;;5007537;28;20386;-89
2022/04/03 23:29:21;;;;;;;7.75;4.20;;;2.60;99.90;;;;;;5013215;28;20090;-88
2022/04/03 23:31:47;;;;;;;10.43;3.80;;;2.60;99.90;;;;;;4995255;28;20040;-91
2022/04/03 23:34:13;;;;;;;7.97;4.10;;;2.60;99.90;;;;;;5009613;28;20037;-89
2022/04/03 23:36:40;;;;;;;9.63;3.90;;;2.60;99.90;;;;;;4991918;28;20456;-91
2022/04/03 23:39:05;;;;;;;6.50;4.03;;;2.60;99.90;;;;;;5024488;28;20671;-89
2022/04/03 23:41:33;;;;;;;8.50;4.05;;;2.50;99.90;;;;;;4994000;28;20133;-92
2022/04/03 23:43:59;;;;;;;8.93;4.07;;;2.50;99.90;;;;;;4997034;28;20037;-89
2022/04/03 23:46:28;;;;;;;9.18;4.22;;;2.60;99.90;;;;;;4996989;28;20086;-87
2022/04/03 23:48:57;;;;;;;8.98;3.80;;;2.60;99.90;;;;;;4998219;28;20090;-89
2022/04/03 23:51:23;;;;;;;5.95;3.92;;;2.70;99.90;;;;;;5009800;28;20041;-89
2022/04/03 23:53:49;;;;;;;7.25;3.75;;;2.70;99.90;;;;;;4999669;28;20371;-89
2022/04/03 23:56:15;;;;;;;11.48;4.38;;;2.70;99.90;;;;;;5021905;28;20483;-90
2022/04/03 23:58:42;;;;;;;8.48;3.85;;;2.80;99.90;;;;;;5016219;28;20116;-89
